sensor_id;sensor_type;location;lat;lon;timestamp;temperature;humidity
10692;DHT22;5396;50.950;6.988;2023-03-23T00:01:06;13.50;99.90
10692;DHT22;5396;50.950;6.988;2023-03-23T00:03:35;13.50;99.90
10692;DHT22;5396;50.950;6.988;2023-03-23T00:06:02;13.50;99.90
10692;DHT22;5396;50.950;6.988;2023-03-23T00:08:37;13.50;99.90
10692;DHT22;5396;50.950;6.988;2023-03-23T00:11:04;13.50;99.90
10692;DHT22;5396;50.950;6.988;2023-03-23T00:13:30;13.50;99.90
10692;DHT22;5396;50.950;6.988;2023-03-23T00:15:56;13.50;99.90
10692;DHT22;5396;50.950;6.988;2023-03-23T00:18:22;13.40;99.90
10692;DHT22;5396;50.950;6.988;2023-03-23T00:20:49;13.40;99.90
10692;DHT22;5396;50.950;6.988;2023-03-23T00:23:18;13.40;99.90
10692;DHT22;5396;50.950;6.988;2023-03-23T00:25:46;13.40;99.90
10692;DHT22;5396;50.950;6.988;2023-03-23T00:28:12;13.40;99.90
10692;DHT22;5396;50.950;6.988;2023-03-23T00:30:41;13.40;99.90
10692;DHT22;5396;50.950;6.988;2023-03-23T00:33:10;13.40;99.90
10692;DHT22;5396;50.950;6.988;2023-03-23T00:35:38;13.40;99.90
10692;DHT22;5396;50.950;6.988;2023-03-23T00:38:07;13.50;99.90
10692;DHT22;5396;50.950;6.988;2023-03-23T00:40:33;13.50;99.90
10692;DHT22;5396;50.950;6.988;2023-03-23T00:43:01;13.50;99.90
10692;DHT22;5396;50.950;6.988;2023-03-23T00:45:29;13.50;99.90
10692;DHT22;5396;50.950;6.988;2023-03-23T00:47:56;13.50;99.90
10692;DHT22;5396;50.950;6.988;2023-03-23T00:50:27;13.50;99.90
10692;DHT22;5396;50.950;6.988;2023-03-23T00:52:52;13.50;99.90
10692;DHT22;5396;50.950;6.988;2023-03-23T00:55:22;13.50;99.90
10692;DHT22;5396;50.950;6.988;2023-03-23T00:57:48;13.40;99.90
10692;DHT22;5396;50.950;6.988;2023-03-23T01:00:16;13.50;99.90
10692;DHT22;5396;50.950;6.988;2023-03-23T01:02:42;13.50;99.90
10692;DHT22;5396;50.950;6.988;2023-03-23T01:05:10;13.40;99.90
10692;DHT22;5396;50.950;6.988;2023-03-23T01:07:36;13.40;99.90
10692;DHT22;5396;50.950;6.988;2023-03-23T01:10:03;13.40;99.90
10692;DHT22;5396;50.950;6.988;2023-03-23T01:12:29;13.30;99.90
10692;DHT22;5396;50.950;6.988;2023-03-23T01:14:55;13.30;99.90
10692;DHT22;5396;50.950;6.988;2023-03-23T01:17:21;13.30;99.90
10692;DHT22;5396;50.950;6.988;2023-03-23T01:19:47;13.30;99.90
10692;DHT22;5396;50.950;6.988;2023-03-23T01:22:12;13.30;99.90
10692;DHT22;5396;50.950;6.988;2023-03-23T01:24:38;13.30;99.90
10692;DHT22;5396;50.950;6.988;2023-03-23T01:27:04;13.30;99.90
10692;DHT22;5396;50.950;6.988;2023-03-23T01:29:35;13.40;99.90
10692;DHT22;5396;50.950;6.988;2023-03-23T01:32:02;13.30;99.90
10692;DHT22;5396;50.950;6.988;2023-03-23T01:34:28;13.30;99.90
10692;DHT22;5396;50.950;6.988;2023-03-23T01:36:53;13.40;99.90
10692;DHT22;5396;50.950;6.988;2023-03-23T01:39:19;13.30;99.90
10692;DHT22;5396;50.950;6.988;2023-03-23T01:41:45;13.30;99.90
10692;DHT22;5396;50.950;6.988;2023-03-23T01:46:46;13.40;99.90
10692;DHT22;5396;50.950;6.988;2023-03-23T01:49:15;13.30;99.90
10692;DHT22;5396;50.950;6.988;2023-03-23T01:51:46;13.30;99.90
10692;DHT22;5396;50.950;6.988;2023-03-23T01:54:16;13.10;99.90
10692;DHT22;5396;50.950;6.988;2023-03-23T01:57:01;12.90;99.90
10692;DHT22;5396;50.950;6.988;2023-03-23T01:59:28;12.80;99.90
10692;DHT22;5396;50.950;6.988;2023-03-23T02:01:54;12.70;99.90
10692;DHT22;5396;50.950;6.988;2023-03-23T02:04:23;12.60;99.90
10692;DHT22;5396;50.950;6.988;2023-03-23T02:06:51;12.50;99.90
10692;DHT22;5396;50.950;6.988;2023-03-23T02:09:17;12.50;99.90
10692;DHT22;5396;50.950;6.988;2023-03-23T02:11:43;12.50;99.90
10692;DHT22;5396;50.950;6.988;2023-03-23T02:14:09;12.50;99.90
10692;DHT22;5396;50.950;6.988;2023-03-23T02:19:37;12.40;99.90
10692;DHT22;5396;50.950;6.988;2023-03-23T02:37:07;12.20;99.90
10692;DHT22;5396;50.950;6.988;2023-03-23T02:39:39;12.20;99.90
10692;DHT22;5396;50.950;6.988;2023-03-23T02:42:09;12.10;99.90
10692;DHT22;5396;50.950;6.988;2023-03-23T02:44:40;12.10;99.90
10692;DHT22;5396;50.950;6.988;2023-03-23T02:47:11;12.10;99.90
10692;DHT22;5396;50.950;6.988;2023-03-23T02:49:40;12.10;99.90
10692;DHT22;5396;50.950;6.988;2023-03-23T02:52:14;12.10;99.90
10692;DHT22;5396;50.950;6.988;2023-03-23T02:54:43;12.20;99.90
10692;DHT22;5396;50.950;6.988;2023-03-23T02:57:10;12.30;99.90
10692;DHT22;5396;50.950;6.988;2023-03-23T02:59:36;12.40;99.90
10692;DHT22;5396;50.950;6.988;2023-03-23T03:02:18;12.40;99.90
10692;DHT22;5396;50.950;6.988;2023-03-23T03:04:59;12.40;99.90
10692;DHT22;5396;50.950;6.988;2023-03-23T03:10:12;12.50;99.90
10692;DHT22;5396;50.950;6.988;2023-03-23T03:17:05;12.50;99.90
10692;DHT22;5396;50.950;6.988;2023-03-23T03:21:56;12.50;99.90
10692;DHT22;5396;50.950;6.988;2023-03-23T03:24:24;12.50;99.90
10692;DHT22;5396;50.950;6.988;2023-03-23T03:26:52;12.50;99.90
10692;DHT22;5396;50.950;6.988;2023-03-23T03:29:34;12.50;99.90
10692;DHT22;5396;50.950;6.988;2023-03-23T03:32:03;12.60;99.90
10692;DHT22;5396;50.950;6.988;2023-03-23T03:34:34;12.50;99.90
10692;DHT22;5396;50.950;6.988;2023-03-23T03:37:00;12.50;99.90
10692;DHT22;5396;50.950;6.988;2023-03-23T03:39:27;12.50;99.90
10692;DHT22;5396;50.950;6.988;2023-03-23T03:41:55;12.50;99.90
10692;DHT22;5396;50.950;6.988;2023-03-23T03:44:21;12.50;99.90
10692;DHT22;5396;50.950;6.988;2023-03-23T03:46:47;12.50;99.90
10692;DHT22;5396;50.950;6.988;2023-03-23T03:49:14;12.50;99.90
10692;DHT22;5396;50.950;6.988;2023-03-23T03:51:42;12.50;99.90
10692;DHT22;5396;50.950;6.988;2023-03-23T03:54:08;12.50;99.90
10692;DHT22;5396;50.950;6.988;2023-03-23T03:56:35;12.50;99.90
10692;DHT22;5396;50.950;6.988;2023-03-23T03:59:03;12.50;99.90
10692;DHT22;5396;50.950;6.988;2023-03-23T04:01:29;12.50;99.90
10692;DHT22;5396;50.950;6.988;2023-03-23T04:03:55;12.50;99.90
10692;DHT22;5396;50.950;6.988;2023-03-23T04:06:21;12.50;99.90
10692;DHT22;5396;50.950;6.988;2023-03-23T04:08:47;12.50;99.90
10692;DHT22;5396;50.950;6.988;2023-03-23T04:11:14;12.40;99.90
10692;DHT22;5396;50.950;6.988;2023-03-23T04:13:40;12.50;99.90
10692;DHT22;5396;50.950;6.988;2023-03-23T04:16:06;12.50;99.90
10692;DHT22;5396;50.950;6.988;2023-03-23T04:18:32;12.40;99.90
10692;DHT22;5396;50.950;6.988;2023-03-23T04:21:00;12.40;99.90
10692;DHT22;5396;50.950;6.988;2023-03-23T04:23:28;12.40;99.90
10692;DHT22;5396;50.950;6.988;2023-03-23T04:25:56;12.40;99.90
10692;DHT22;5396;50.950;6.988;2023-03-23T04:28:25;12.30;99.90
10692;DHT22;5396;50.950;6.988;2023-03-23T04:30:54;12.30;99.90
10692;DHT22;5396;50.950;6.988;2023-03-23T04:33:25;12.30;99.90
10692;DHT22;5396;50.950;6.988;2023-03-23T04:35:56;12.20;99.90
10692;DHT22;5396;50.950;6.988;2023-03-23T04:38:27;12.20;99.90
10692;DHT22;5396;50.950;6.988;2023-03-23T04:40:54;12.20;99.90
10692;DHT22;5396;50.950;6.988;2023-03-23T04:43:21;12.20;99.90
10692;DHT22;5396;50.950;6.988;2023-03-23T04:45:57;12.30;99.90
10692;DHT22;5396;50.950;6.988;2023-03-23T04:48:29;12.30;99.90
10692;DHT22;5396;50.950;6.988;2023-03-23T04:50:55;12.30;99.90
10692;DHT22;5396;50.950;6.988;2023-03-23T04:53:22;12.30;99.90
10692;DHT22;5396;50.950;6.988;2023-03-23T04:55:48;12.40;99.90
10692;DHT22;5396;50.950;6.988;2023-03-23T04:58:15;12.40;99.90
10692;DHT22;5396;50.950;6.988;2023-03-23T05:00:42;12.40;99.90
10692;DHT22;5396;50.950;6.988;2023-03-23T05:03:19;12.40;99.90
10692;DHT22;5396;50.950;6.988;2023-03-23T05:05:46;12.40;99.90
10692;DHT22;5396;50.950;6.988;2023-03-23T05:08:18;12.40;99.90
10692;DHT22;5396;50.950;6.988;2023-03-23T05:10:56;12.40;99.90
10692;DHT22;5396;50.950;6.988;2023-03-23T05:13:23;12.40;99.90
10692;DHT22;5396;50.950;6.988;2023-03-23T05:15:48;12.30;99.90
10692;DHT22;5396;50.950;6.988;2023-03-23T05:18:15;12.30;99.90
10692;DHT22;5396;50.950;6.988;2023-03-23T05:20:41;12.30;99.90
10692;DHT22;5396;50.950;6.988;2023-03-23T05:23:09;12.20;99.90
10692;DHT22;5396;50.950;6.988;2023-03-23T05:25:36;12.20;99.90
10692;DHT22;5396;50.950;6.988;2023-03-23T05:28:07;12.20;99.90
10692;DHT22;5396;50.950;6.988;2023-03-23T05:30:35;12.20;99.90
10692;DHT22;5396;50.950;6.988;2023-03-23T05:33:02;12.10;99.90
10692;DHT22;5396;50.950;6.988;2023-03-23T05:35:28;12.10;99.90
10692;DHT22;5396;50.950;6.988;2023-03-23T05:37:54;12.10;99.90
10692;DHT22;5396;50.950;6.988;2023-03-23T05:40:21;12.10;99.90
10692;DHT22;5396;50.950;6.988;2023-03-23T05:42:47;12.10;99.90
10692;DHT22;5396;50.950;6.988;2023-03-23T05:45:13;12.10;99.90
10692;DHT22;5396;50.950;6.988;2023-03-23T05:47:40;12.10;99.90
10692;DHT22;5396;50.950;6.988;2023-03-23T05:50:07;12.10;99.90
10692;DHT22;5396;50.950;6.988;2023-03-23T05:52:34;12.10;99.90
10692;DHT22;5396;50.950;6.988;2023-03-23T05:55:04;12.10;99.90
10692;DHT22;5396;50.950;6.988;2023-03-23T05:57:30;12.20;99.90
10692;DHT22;5396;50.950;6.988;2023-03-23T05:59:56;12.30;99.90
10692;DHT22;5396;50.950;6.988;2023-03-23T06:02:24;12.30;99.90
10692;DHT22;5396;50.950;6.988;2023-03-23T06:04:51;12.40;99.90
10692;DHT22;5396;50.950;6.988;2023-03-23T06:07:25;12.40;99.90
10692;DHT22;5396;50.950;6.988;2023-03-23T06:09:53;12.40;99.90
10692;DHT22;5396;50.950;6.988;2023-03-23T06:12:20;12.40;99.90
10692;DHT22;5396;50.950;6.988;2023-03-23T06:14:50;12.40;99.90
10692;DHT22;5396;50.950;6.988;2023-03-23T06:17:17;12.50;99.90
10692;DHT22;5396;50.950;6.988;2023-03-23T06:19:43;12.50;99.90
10692;DHT22;5396;50.950;6.988;2023-03-23T06:22:09;12.60;99.90
10692;DHT22;5396;50.950;6.988;2023-03-23T06:24:36;12.70;99.90
10692;DHT22;5396;50.950;6.988;2023-03-23T06:27:03;12.70;99.90
10692;DHT22;5396;50.950;6.988;2023-03-23T06:29:30;12.80;99.90
10692;DHT22;5396;50.950;6.988;2023-03-23T06:32:00;12.80;99.90
10692;DHT22;5396;50.950;6.988;2023-03-23T06:34:28;12.80;99.90
10692;DHT22;5396;50.950;6.988;2023-03-23T06:36:53;12.80;99.90
10692;DHT22;5396;50.950;6.988;2023-03-23T06:39:19;12.80;99.90
10692;DHT22;5396;50.950;6.988;2023-03-23T06:41:47;12.80;99.90
10692;DHT22;5396;50.950;6.988;2023-03-23T06:44:13;12.80;99.90
10692;DHT22;5396;50.950;6.988;2023-03-23T06:46:40;12.90;99.90
10692;DHT22;5396;50.950;6.988;2023-03-23T06:49:07;12.90;99.90
10692;DHT22;5396;50.950;6.988;2023-03-23T06:51:34;12.90;99.90
10692;DHT22;5396;50.950;6.988;2023-03-23T06:54:00;13.00;99.90
10692;DHT22;5396;50.950;6.988;2023-03-23T06:56:26;13.00;99.90
10692;DHT22;5396;50.950;6.988;2023-03-23T06:58:53;13.10;99.90
10692;DHT22;5396;50.950;6.988;2023-03-23T07:01:19;13.10;99.90
10692;DHT22;5396;50.950;6.988;2023-03-23T07:03:45;13.10;99.90
10692;DHT22;5396;50.950;6.988;2023-03-23T07:06:11;13.10;99.90
10692;DHT22;5396;50.950;6.988;2023-03-23T07:08:37;13.10;99.90
10692;DHT22;5396;50.950;6.988;2023-03-23T07:11:04;13.10;99.90
10692;DHT22;5396;50.950;6.988;2023-03-23T07:13:31;13.10;99.90
10692;DHT22;5396;50.950;6.988;2023-03-23T07:15:56;13.20;99.90
10692;DHT22;5396;50.950;6.988;2023-03-23T07:18:23;13.20;99.90
10692;DHT22;5396;50.950;6.988;2023-03-23T07:20:49;13.20;99.90
10692;DHT22;5396;50.950;6.988;2023-03-23T07:23:16;13.30;99.90
10692;DHT22;5396;50.950;6.988;2023-03-23T07:25:43;13.30;99.90
10692;DHT22;5396;50.950;6.988;2023-03-23T07:28:08;13.40;99.90
10692;DHT22;5396;50.950;6.988;2023-03-23T07:30:34;13.40;99.90
10692;DHT22;5396;50.950;6.988;2023-03-23T07:33:04;13.50;99.90
10692;DHT22;5396;50.950;6.988;2023-03-23T07:35:31;13.50;99.90
10692;DHT22;5396;50.950;6.988;2023-03-23T07:37:58;13.50;99.90
10692;DHT22;5396;50.950;6.988;2023-03-23T07:40:25;13.60;99.90
10692;DHT22;5396;50.950;6.988;2023-03-23T07:42:53;13.60;99.90
10692;DHT22;5396;50.950;6.988;2023-03-23T07:45:19;13.60;99.90
10692;DHT22;5396;50.950;6.988;2023-03-23T07:47:47;13.70;99.90
10692;DHT22;5396;50.950;6.988;2023-03-23T07:50:12;13.70;99.90
10692;DHT22;5396;50.950;6.988;2023-03-23T07:52:39;13.70;99.90
10692;DHT22;5396;50.950;6.988;2023-03-23T07:55:08;13.70;99.90
10692;DHT22;5396;50.950;6.988;2023-03-23T07:57:45;13.70;99.90
10692;DHT22;5396;50.950;6.988;2023-03-23T08:00:16;13.70;99.90
10692;DHT22;5396;50.950;6.988;2023-03-23T08:02:53;13.80;99.90
10692;DHT22;5396;50.950;6.988;2023-03-23T08:05:20;13.80;99.90
10692;DHT22;5396;50.950;6.988;2023-03-23T08:07:48;13.80;99.90
10692;DHT22;5396;50.950;6.988;2023-03-23T08:10:15;13.90;99.90
10692;DHT22;5396;50.950;6.988;2023-03-23T08:12:43;13.90;99.90
10692;DHT22;5396;50.950;6.988;2023-03-23T08:15:11;14.00;99.90
10692;DHT22;5396;50.950;6.988;2023-03-23T08:17:43;14.10;99.90
10692;DHT22;5396;50.950;6.988;2023-03-23T08:20:11;14.10;99.90
10692;DHT22;5396;50.950;6.988;2023-03-23T08:22:44;14.10;99.90
10692;DHT22;5396;50.950;6.988;2023-03-23T08:25:13;14.20;99.90
10692;DHT22;5396;50.950;6.988;2023-03-23T08:27:42;14.30;99.90
10692;DHT22;5396;50.950;6.988;2023-03-23T08:30:16;14.30;99.90
10692;DHT22;5396;50.950;6.988;2023-03-23T08:32:42;14.30;99.90
10692;DHT22;5396;50.950;6.988;2023-03-23T08:35:09;14.30;99.90
10692;DHT22;5396;50.950;6.988;2023-03-23T08:37:38;14.20;99.90
10692;DHT22;5396;50.950;6.988;2023-03-23T08:40:05;14.40;99.90
10692;DHT22;5396;50.950;6.988;2023-03-23T08:42:37;14.40;99.90
10692;DHT22;5396;50.950;6.988;2023-03-23T08:45:14;14.50;99.90
10692;DHT22;5396;50.950;6.988;2023-03-23T08:47:42;14.50;99.90
10692;DHT22;5396;50.950;6.988;2023-03-23T08:50:13;14.50;99.90
10692;DHT22;5396;50.950;6.988;2023-03-23T08:52:41;14.50;99.90
10692;DHT22;5396;50.950;6.988;2023-03-23T08:55:08;14.60;99.90
10692;DHT22;5396;50.950;6.988;2023-03-23T08:57:35;14.60;99.90
10692;DHT22;5396;50.950;6.988;2023-03-23T09:00:03;14.50;99.90
10692;DHT22;5396;50.950;6.988;2023-03-23T09:02:38;14.50;99.90
10692;DHT22;5396;50.950;6.988;2023-03-23T09:05:04;14.50;99.90
10692;DHT22;5396;50.950;6.988;2023-03-23T09:07:30;14.40;99.90
10692;DHT22;5396;50.950;6.988;2023-03-23T09:09:57;14.30;99.90
10692;DHT22;5396;50.950;6.988;2023-03-23T09:12:22;14.30;99.90
10692;DHT22;5396;50.950;6.988;2023-03-23T09:14:49;14.40;99.90
10692;DHT22;5396;50.950;6.988;2023-03-23T09:17:15;14.50;99.90
10692;DHT22;5396;50.950;6.988;2023-03-23T09:19:41;14.60;99.90
10692;DHT22;5396;50.950;6.988;2023-03-23T09:22:07;14.60;99.90
10692;DHT22;5396;50.950;6.988;2023-03-23T09:24:33;14.60;99.90
10692;DHT22;5396;50.950;6.988;2023-03-23T09:26:59;14.80;99.90
10692;DHT22;5396;50.950;6.988;2023-03-23T09:29:26;14.90;99.90
10692;DHT22;5396;50.950;6.988;2023-03-23T09:31:52;15.00;99.90
10692;DHT22;5396;50.950;6.988;2023-03-23T09:34:18;15.00;99.90
10692;DHT22;5396;50.950;6.988;2023-03-23T09:36:44;15.20;99.90
10692;DHT22;5396;50.950;6.988;2023-03-23T09:39:11;15.30;99.90
10692;DHT22;5396;50.950;6.988;2023-03-23T09:47:17;15.30;99.90
10692;DHT22;5396;50.950;6.988;2023-03-23T09:50:12;15.30;99.90
10692;DHT22;5396;50.950;6.988;2023-03-23T09:53:04;15.30;99.90
10692;DHT22;5396;50.950;6.988;2023-03-23T09:55:34;15.30;99.90
10692;DHT22;5396;50.950;6.988;2023-03-23T09:58:26;15.30;99.90
10692;DHT22;5396;50.950;6.988;2023-03-23T10:01:08;15.20;99.90
10692;DHT22;5396;50.950;6.988;2023-03-23T10:03:41;15.20;99.90
10692;DHT22;5396;50.950;6.988;2023-03-23T10:06:16;15.20;99.90
10692;DHT22;5396;50.950;6.988;2023-03-23T10:08:52;15.20;99.90
10692;DHT22;5396;50.950;6.988;2023-03-23T10:11:40;15.30;99.90
10692;DHT22;5396;50.950;6.988;2023-03-23T10:14:42;15.30;99.90
10692;DHT22;5396;50.950;6.988;2023-03-23T10:22:14;15.50;99.90
10692;DHT22;5396;50.950;6.988;2023-03-23T10:25:19;15.70;99.90
10692;DHT22;5396;50.950;6.988;2023-03-23T10:27:59;15.60;99.90
10692;DHT22;5396;50.950;6.988;2023-03-23T10:30:49;15.40;99.90
10692;DHT22;5396;50.950;6.988;2023-03-23T10:33:29;15.30;99.90
10692;DHT22;5396;50.950;6.988;2023-03-23T10:38:45;14.90;99.90
10692;DHT22;5396;50.950;6.988;2023-03-23T10:41:18;14.80;99.90
10692;DHT22;5396;50.950;6.988;2023-03-23T10:43:45;14.80;99.90
10692;DHT22;5396;50.950;6.988;2023-03-23T10:46:36;14.80;99.90
10692;DHT22;5396;50.950;6.988;2023-03-23T10:49:08;14.70;99.90
10692;DHT22;5396;50.950;6.988;2023-03-23T10:51:40;14.50;99.90
10692;DHT22;5396;50.950;6.988;2023-03-23T10:54:07;14.50;99.90
10692;DHT22;5396;50.950;6.988;2023-03-23T10:56:41;14.40;99.90
10692;DHT22;5396;50.950;6.988;2023-03-23T10:59:30;14.50;99.90
10692;DHT22;5396;50.950;6.988;2023-03-23T11:02:00;14.60;99.90
10692;DHT22;5396;50.950;6.988;2023-03-23T11:04:30;14.70;99.90
10692;DHT22;5396;50.950;6.988;2023-03-23T11:06:59;14.80;99.90
10692;DHT22;5396;50.950;6.988;2023-03-23T11:09:40;14.90;99.90
10692;DHT22;5396;50.950;6.988;2023-03-23T11:12:18;15.10;99.90
10692;DHT22;5396;50.950;6.988;2023-03-23T11:14:44;15.10;99.90
10692;DHT22;5396;50.950;6.988;2023-03-23T11:17:24;15.10;99.90
10692;DHT22;5396;50.950;6.988;2023-03-23T11:19:51;15.20;99.90
10692;DHT22;5396;50.950;6.988;2023-03-23T11:22:28;15.40;99.90
10692;DHT22;5396;50.950;6.988;2023-03-23T11:25:01;15.60;99.90
10692;DHT22;5396;50.950;6.988;2023-03-23T11:27:28;15.60;99.90
10692;DHT22;5396;50.950;6.988;2023-03-23T11:29:56;15.50;99.90
10692;DHT22;5396;50.950;6.988;2023-03-23T11:32:26;15.40;99.90
10692;DHT22;5396;50.950;6.988;2023-03-23T11:34:57;15.30;99.90
10692;DHT22;5396;50.950;6.988;2023-03-23T11:37:39;15.20;99.90
10692;DHT22;5396;50.950;6.988;2023-03-23T11:42:47;15.20;99.90
10692;DHT22;5396;50.950;6.988;2023-03-23T11:50:44;15.10;99.90
10692;DHT22;5396;50.950;6.988;2023-03-23T11:54:02;15.00;99.90
10692;DHT22;5396;50.950;6.988;2023-03-23T11:58:32;14.70;99.90
10692;DHT22;5396;50.950;6.988;2023-03-23T12:01:12;14.50;99.90
10692;DHT22;5396;50.950;6.988;2023-03-23T12:04:12;14.50;99.90
10692;DHT22;5396;50.950;6.988;2023-03-23T12:06:58;14.50;99.90
10692;DHT22;5396;50.950;6.988;2023-03-23T12:09:47;14.70;99.90
10692;DHT22;5396;50.950;6.988;2023-03-23T12:18:08;15.50;99.90
10692;DHT22;5396;50.950;6.988;2023-03-23T12:21:04;15.40;99.90
10692;DHT22;5396;50.950;6.988;2023-03-23T12:26:20;15.50;99.90
10692;DHT22;5396;50.950;6.988;2023-03-23T12:29:26;15.80;99.90
10692;DHT22;5396;50.950;6.988;2023-03-23T12:37:24;16.50;99.90
10692;DHT22;5396;50.950;6.988;2023-03-23T12:43:27;16.60;99.90
10692;DHT22;5396;50.950;6.988;2023-03-23T12:48:47;16.40;99.90
10692;DHT22;5396;50.950;6.988;2023-03-23T12:53:58;16.10;99.90
10692;DHT22;5396;50.950;6.988;2023-03-23T12:59:21;15.80;99.90
10692;DHT22;5396;50.950;6.988;2023-03-23T13:02:25;15.80;99.90
10692;DHT22;5396;50.950;6.988;2023-03-23T13:07:28;15.90;99.90
10692;DHT22;5396;50.950;6.988;2023-03-23T13:10:05;16.00;99.90
10692;DHT22;5396;50.950;6.988;2023-03-23T13:12:34;16.20;99.90
10692;DHT22;5396;50.950;6.988;2023-03-23T13:15:16;16.40;99.90
10692;DHT22;5396;50.950;6.988;2023-03-23T13:23:28;16.20;99.90
10692;DHT22;5396;50.950;6.988;2023-03-23T13:26:16;16.20;99.90
10692;DHT22;5396;50.950;6.988;2023-03-23T13:31:30;15.70;99.90
10692;DHT22;5396;50.950;6.988;2023-03-23T13:34:24;15.80;99.90
10692;DHT22;5396;50.950;6.988;2023-03-23T13:37:25;16.00;99.90
10692;DHT22;5396;50.950;6.988;2023-03-23T13:39:55;16.20;99.90
10692;DHT22;5396;50.950;6.988;2023-03-23T13:42:28;16.00;99.90
10692;DHT22;5396;50.950;6.988;2023-03-23T13:44:57;15.80;99.90
10692;DHT22;5396;50.950;6.988;2023-03-23T13:47:37;15.50;99.90
10692;DHT22;5396;50.950;6.988;2023-03-23T13:58:10;15.70;99.90
10692;DHT22;5396;50.950;6.988;2023-03-23T14:01:00;16.60;99.90
10692;DHT22;5396;50.950;6.988;2023-03-23T14:03:36;17.00;99.90
10692;DHT22;5396;50.950;6.988;2023-03-23T14:06:12;17.10;99.90
10692;DHT22;5396;50.950;6.988;2023-03-23T14:08:44;16.80;99.90
10692;DHT22;5396;50.950;6.988;2023-03-23T14:11:19;16.50;99.90
10692;DHT22;5396;50.950;6.988;2023-03-23T14:14:20;16.50;99.90
10692;DHT22;5396;50.950;6.988;2023-03-23T14:16:49;16.60;99.90
10692;DHT22;5396;50.950;6.988;2023-03-23T14:19:24;16.40;99.90
10692;DHT22;5396;50.950;6.988;2023-03-23T14:22:00;16.40;99.90
10692;DHT22;5396;50.950;6.988;2023-03-23T14:24:31;16.30;99.90
10692;DHT22;5396;50.950;6.988;2023-03-23T14:29:38;16.10;99.90
10692;DHT22;5396;50.950;6.988;2023-03-23T14:32:06;16.00;99.90
10692;DHT22;5396;50.950;6.988;2023-03-23T14:34:33;16.10;99.90
10692;DHT22;5396;50.950;6.988;2023-03-23T14:36:59;16.00;99.90
10692;DHT22;5396;50.950;6.988;2023-03-23T14:39:28;15.90;99.90
10692;DHT22;5396;50.950;6.988;2023-03-23T14:41:55;15.90;99.90
10692;DHT22;5396;50.950;6.988;2023-03-23T14:44:26;15.90;99.90
10692;DHT22;5396;50.950;6.988;2023-03-23T14:46:54;15.80;99.90
10692;DHT22;5396;50.950;6.988;2023-03-23T14:49:28;15.80;99.90
10692;DHT22;5396;50.950;6.988;2023-03-23T14:51:55;15.80;99.90
10692;DHT22;5396;50.950;6.988;2023-03-23T14:54:26;15.70;99.90
10692;DHT22;5396;50.950;6.988;2023-03-23T14:56:53;15.60;99.90
10692;DHT22;5396;50.950;6.988;2023-03-23T14:59:21;15.30;99.90
10692;DHT22;5396;50.950;6.988;2023-03-23T15:01:49;15.10;99.90
10692;DHT22;5396;50.950;6.988;2023-03-23T15:04:24;14.90;99.90
10692;DHT22;5396;50.950;6.988;2023-03-23T15:07:02;15.00;99.90
10692;DHT22;5396;50.950;6.988;2023-03-23T15:09:28;15.10;99.90
10692;DHT22;5396;50.950;6.988;2023-03-23T15:11:58;15.40;99.90
10692;DHT22;5396;50.950;6.988;2023-03-23T15:14:29;15.80;99.90
10692;DHT22;5396;50.950;6.988;2023-03-23T15:16:56;16.10;99.90
10692;DHT22;5396;50.950;6.988;2023-03-23T15:19:31;16.40;99.90
10692;DHT22;5396;50.950;6.988;2023-03-23T15:22:13;16.70;99.90
10692;DHT22;5396;50.950;6.988;2023-03-23T15:24:41;16.80;99.90
10692;DHT22;5396;50.950;6.988;2023-03-23T15:27:11;17.00;99.90
10692;DHT22;5396;50.950;6.988;2023-03-23T15:29:55;17.20;99.90
10692;DHT22;5396;50.950;6.988;2023-03-23T15:32:30;17.10;99.90
10692;DHT22;5396;50.950;6.988;2023-03-23T15:34:57;17.60;99.90
10692;DHT22;5396;50.950;6.988;2023-03-23T15:37:27;18.00;99.90
10692;DHT22;5396;50.950;6.988;2023-03-23T15:39:54;18.00;99.90
10692;DHT22;5396;50.950;6.988;2023-03-23T15:42:34;17.80;99.90
10692;DHT22;5396;50.950;6.988;2023-03-23T15:45:33;17.50;99.90
10692;DHT22;5396;50.950;6.988;2023-03-23T15:47:51;17.60;99.90
10692;DHT22;5396;50.950;6.988;2023-03-23T15:50:33;17.30;99.90
10692;DHT22;5396;50.950;6.988;2023-03-23T15:53:14;17.20;99.90
10692;DHT22;5396;50.950;6.988;2023-03-23T15:55:41;17.10;99.90
10692;DHT22;5396;50.950;6.988;2023-03-23T15:58:11;17.20;99.90
10692;DHT22;5396;50.950;6.988;2023-03-23T16:00:38;17.60;99.90
10692;DHT22;5396;50.950;6.988;2023-03-23T16:03:06;17.90;99.90
10692;DHT22;5396;50.950;6.988;2023-03-23T16:05:33;18.40;99.90
10692;DHT22;5396;50.950;6.988;2023-03-23T16:07:59;18.30;99.90
10692;DHT22;5396;50.950;6.988;2023-03-23T16:10:26;18.50;99.90
10692;DHT22;5396;50.950;6.988;2023-03-23T16:12:52;18.30;99.90
10692;DHT22;5396;50.950;6.988;2023-03-23T16:15:18;18.00;99.90
10692;DHT22;5396;50.950;6.988;2023-03-23T16:17:44;17.70;99.90
10692;DHT22;5396;50.950;6.988;2023-03-23T16:20:19;17.30;99.90
10692;DHT22;5396;50.950;6.988;2023-03-23T16:22:47;17.00;99.90
10692;DHT22;5396;50.950;6.988;2023-03-23T16:25:13;16.80;99.90
10692;DHT22;5396;50.950;6.988;2023-03-23T16:27:40;16.80;99.90
10692;DHT22;5396;50.950;6.988;2023-03-23T16:30:20;16.80;99.90
10692;DHT22;5396;50.950;6.988;2023-03-23T16:32:46;16.90;99.90
10692;DHT22;5396;50.950;6.988;2023-03-23T16:35:13;16.90;99.90
10692;DHT22;5396;50.950;6.988;2023-03-23T16:37:47;16.80;99.90
10692;DHT22;5396;50.950;6.988;2023-03-23T16:40:13;16.60;99.90
10692;DHT22;5396;50.950;6.988;2023-03-23T16:42:39;16.30;99.90
10692;DHT22;5396;50.950;6.988;2023-03-23T16:45:09;16.30;99.90
10692;DHT22;5396;50.950;6.988;2023-03-23T16:47:35;16.10;99.90
10692;DHT22;5396;50.950;6.988;2023-03-23T16:50:01;16.10;99.90
10692;DHT22;5396;50.950;6.988;2023-03-23T16:52:31;16.10;99.90
10692;DHT22;5396;50.950;6.988;2023-03-23T16:55:08;16.10;99.90
10692;DHT22;5396;50.950;6.988;2023-03-23T16:57:57;16.20;99.90
10692;DHT22;5396;50.950;6.988;2023-03-23T17:00:26;16.20;99.90
10692;DHT22;5396;50.950;6.988;2023-03-23T17:02:53;16.20;99.90
10692;DHT22;5396;50.950;6.988;2023-03-23T17:05:23;16.10;99.90
10692;DHT22;5396;50.950;6.988;2023-03-23T17:07:48;15.90;99.90
10692;DHT22;5396;50.950;6.988;2023-03-23T17:10:15;15.80;99.90
10692;DHT22;5396;50.950;6.988;2023-03-23T17:12:41;15.70;99.90
10692;DHT22;5396;50.950;6.988;2023-03-23T17:15:07;15.60;99.90
10692;DHT22;5396;50.950;6.988;2023-03-23T17:17:34;15.60;99.90
10692;DHT22;5396;50.950;6.988;2023-03-23T17:20:00;15.50;99.90
10692;DHT22;5396;50.950;6.988;2023-03-23T17:22:26;15.40;99.90
10692;DHT22;5396;50.950;6.988;2023-03-23T17:24:51;15.40;99.90
10692;DHT22;5396;50.950;6.988;2023-03-23T17:27:19;15.30;99.90
10692;DHT22;5396;50.950;6.988;2023-03-23T17:29:45;15.20;99.90
10692;DHT22;5396;50.950;6.988;2023-03-23T17:32:11;15.20;99.90
10692;DHT22;5396;50.950;6.988;2023-03-23T17:34:37;15.20;99.90
10692;DHT22;5396;50.950;6.988;2023-03-23T17:37:03;15.10;99.90
10692;DHT22;5396;50.950;6.988;2023-03-23T17:39:30;15.10;99.90
10692;DHT22;5396;50.950;6.988;2023-03-23T17:41:56;15.00;99.90
10692;DHT22;5396;50.950;6.988;2023-03-23T17:44:22;15.00;99.90
10692;DHT22;5396;50.950;6.988;2023-03-23T17:46:50;14.90;99.90